createdAt,value
2023-01-27T00:01:30.456Z,99646.00
2023-01-27T00:03:58.692Z,99647.66
2023-01-27T00:06:28.236Z,99649.94
2023-01-27T00:08:56.417Z,99639.41
2023-01-27T00:11:41.929Z,99651.47
2023-01-27T00:14:10.141Z,99649.09
2023-01-27T00:16:38.291Z,99637.56
2023-01-27T00:19:07.133Z,99643.44
2023-01-27T00:21:56.395Z,99636.81
2023-01-27T00:24:39.625Z,99634.13
2023-01-27T00:27:10.062Z,99638.25
2023-01-27T00:29:38.737Z,99633.53
2023-01-27T00:32:24.952Z,99640.59
2023-01-27T00:34:53.171Z,99644.09
2023-01-27T00:37:24.510Z,99637.00
2023-01-27T00:39:52.687Z,99640.66
2023-01-27T00:42:20.818Z,99631.34
2023-01-27T00:45:02.918Z,99629.06
2023-01-27T00:47:31.056Z,99635.78
2023-01-27T00:49:59.239Z,99630.00
2023-01-27T00:52:28.781Z,99636.03
2023-01-27T00:54:57.015Z,99630.94
2023-01-27T00:57:25.844Z,99635.56
2023-01-27T00:59:53.994Z,99643.94
2023-01-27T01:02:22.191Z,99645.50
2023-01-27T01:04:50.380Z,99638.56
2023-01-27T01:07:18.526Z,99640.09
2023-01-27T01:09:48.130Z,99646.69
2023-01-27T01:12:16.365Z,99638.63
2023-01-27T01:14:44.582Z,99640.66
2023-01-27T01:17:15.302Z,99643.00
2023-01-27T01:19:43.499Z,99657.03
2023-01-27T01:22:11.687Z,99655.38
2023-01-27T01:24:39.777Z,99662.75
2023-01-27T01:27:09.223Z,99655.22
2023-01-27T01:29:37.272Z,99648.38
2023-01-27T01:32:09.826Z,99650.75
2023-01-27T01:34:38.064Z,99655.13
2023-01-27T01:37:06.521Z,99650.53
2023-01-27T01:39:34.775Z,99647.47
2023-01-27T01:42:02.833Z,99647.97
2023-01-27T01:44:33.538Z,99651.06
2023-01-27T01:47:01.861Z,99643.19
2023-01-27T01:49:33.962Z,99645.63
2023-01-27T01:52:08.525Z,99649.28
2023-01-27T01:54:40.011Z,99643.78
2023-01-27T01:57:12.343Z,99635.50
2023-01-27T01:59:46.836Z,99648.19
2023-01-27T02:02:19.759Z,99641.94
2023-01-27T02:04:55.546Z,99637.34
2023-01-27T02:07:30.487Z,99631.25
2023-01-27T02:10:02.250Z,99633.34
2023-01-27T02:12:30.284Z,99633.47
2023-01-27T02:15:00.143Z,99629.72
2023-01-27T02:17:29.413Z,99629.38
2023-01-27T02:20:06.930Z,99636.19
2023-01-27T02:22:40.996Z,99628.41
2023-01-27T02:25:27.329Z,99630.31
2023-01-27T02:27:56.867Z,99633.34
2023-01-27T02:30:25.797Z,99643.75
2023-01-27T02:32:57.323Z,99637.91
2023-01-27T02:35:31.606Z,99634.28
2023-01-27T02:38:00.626Z,99625.56
2023-01-27T02:40:30.885Z,99636.66
2023-01-27T02:43:01.534Z,99618.94
2023-01-27T02:45:29.956Z,99634.28
2023-01-27T02:47:58.194Z,99634.28
2023-01-27T02:50:26.369Z,99632.16
2023-01-27T02:52:54.568Z,99631.56
2023-01-27T02:55:22.722Z,99639.31
2023-01-27T02:57:50.908Z,99644.59
2023-01-27T03:00:20.916Z,99647.34
2023-01-27T03:02:49.200Z,99650.97
2023-01-27T03:05:17.508Z,99647.66
2023-01-27T03:07:45.668Z,99649.63
2023-01-27T03:10:13.819Z,99653.53
2023-01-27T03:12:42.019Z,99651.13
2023-01-27T03:15:28.842Z,99655.38
2023-01-27T03:18:16.200Z,99655.97
2023-01-27T03:20:46.835Z,99654.94
2023-01-27T03:23:16.569Z,99656.47
2023-01-27T03:25:47.647Z,99665.31
2023-01-27T03:28:16.513Z,99657.03
2023-01-27T03:30:44.721Z,99659.91
2023-01-27T03:33:14.257Z,99662.06
2023-01-27T03:35:48.579Z,99664.19
2023-01-27T03:38:34.919Z,99662.31
2023-01-27T03:41:22.445Z,99665.75
2023-01-27T03:44:07.902Z,99667.94
2023-01-27T03:46:36.157Z,99664.66
2023-01-27T03:49:05.743Z,99669.84
2023-01-27T03:51:33.910Z,99675.88
2023-01-27T03:54:02.091Z,99683.50
2023-01-27T03:56:30.273Z,99674.19
2023-01-27T03:58:58.561Z,99675.88
2023-01-27T04:01:26.807Z,99675.53
2023-01-27T04:04:12.825Z,99678.72
2023-01-27T04:06:53.291Z,99670.94
2023-01-27T04:09:24.476Z,99675.72
2023-01-27T04:12:01.973Z,99669.84
2023-01-27T04:14:35.640Z,99672.09
2023-01-27T04:17:06.629Z,99680.59
2023-01-27T04:19:35.568Z,99676.47
2023-01-27T04:22:07.052Z,99676.47
2023-01-27T04:24:35.485Z,99688.25
2023-01-27T04:27:06.412Z,99686.38
2023-01-27T04:29:37.372Z,99681.19
2023-01-27T04:32:07.075Z,99684.00
2023-01-27T04:34:35.575Z,99685.78
2023-01-27T04:37:06.699Z,99671.72
2023-01-27T04:39:38.494Z,99681.84
2023-01-27T04:42:06.912Z,99668.88
2023-01-27T04:44:35.077Z,99671.72
2023-01-27T04:47:03.296Z,99671.09
2023-01-27T04:49:31.482Z,99671.88
2023-01-27T04:51:59.760Z,99678.22
2023-01-27T04:54:29.340Z,99676.34
2023-01-27T04:57:00.338Z,99675.16
2023-01-27T04:59:29.108Z,99675.91
2023-01-27T05:01:57.623Z,99683.91
2023-01-27T05:04:27.104Z,99676.56
2023-01-27T05:06:55.593Z,99681.53
2023-01-27T05:09:24.107Z,99682.75
2023-01-27T05:11:53.631Z,99675.47
2023-01-27T05:14:23.515Z,99685.94
2023-01-27T05:16:51.821Z,99674.13
2023-01-27T05:19:20.064Z,99685.34
2023-01-27T05:21:48.273Z,99683.69
2023-01-27T05:24:16.567Z,99689.81
2023-01-27T05:26:44.813Z,99688.13
2023-01-27T05:29:14.535Z,99698.31
2023-01-27T05:31:42.817Z,99694.16
2023-01-27T05:34:11.482Z,99691.06
2023-01-27T05:36:39.744Z,99691.91
2023-01-27T05:39:09.092Z,99684.00
2023-01-27T05:41:37.629Z,99694.50
2023-01-27T05:44:06.544Z,99689.63
2023-01-27T05:46:39.980Z,99695.75
2023-01-27T05:49:08.236Z,99693.75
2023-01-27T05:51:39.688Z,99694.59
2023-01-27T05:54:09.187Z,99695.66
2023-01-27T05:56:37.532Z,99696.59
2023-01-27T05:59:06.058Z,99696.47
2023-01-27T06:01:37.600Z,99697.50
2023-01-27T06:04:06.661Z,99692.81
2023-01-27T06:06:35.667Z,99704.13
2023-01-27T06:09:04.144Z,99702.47
2023-01-27T06:11:32.406Z,99708.16
2023-01-27T06:14:00.600Z,99713.25
2023-01-27T06:16:28.854Z,99715.75
2023-01-27T06:18:58.705Z,99712.91
2023-01-27T06:21:26.992Z,99715.81
2023-01-27T06:23:55.854Z,99712.97
2023-01-27T06:26:24.084Z,99713.72
2023-01-27T06:29:07.138Z,99709.25
2023-01-27T06:31:35.452Z,99714.81
2023-01-27T06:34:04.959Z,99705.25
2023-01-27T06:36:33.108Z,99713.97
2023-01-27T06:39:01.297Z,99707.34
2023-01-27T06:41:29.509Z,99712.97
2023-01-27T06:43:57.647Z,99714.13
2023-01-27T06:46:25.833Z,99708.03
2023-01-27T06:48:54.027Z,99714.25
2023-01-27T06:51:23.628Z,99719.56
2023-01-27T06:53:51.795Z,99721.31
2023-01-27T06:56:19.999Z,99725.69
2023-01-27T06:58:48.223Z,99725.53
2023-01-27T07:01:16.429Z,99733.63
2023-01-27T07:03:45.219Z,99739.91
2023-01-27T07:06:14.940Z,99737.22
2023-01-27T07:08:45.880Z,99737.94
2023-01-27T07:11:14.216Z,99741.13
2023-01-27T07:13:42.396Z,99745.91
2023-01-27T07:16:10.672Z,99751.56
2023-01-27T07:18:38.857Z,99755.69
2023-01-27T07:21:07.694Z,99754.34
2023-01-27T07:23:35.861Z,99755.16
2023-01-27T07:26:19.235Z,99765.78
2023-01-27T07:28:52.752Z,99761.88
2023-01-27T07:31:21.021Z,99770.91
2023-01-27T07:33:50.520Z,99771.81
2023-01-27T07:36:18.682Z,99765.09
2023-01-27T07:38:50.311Z,99774.09
2023-01-27T07:41:19.961Z,99776.97
2023-01-27T07:43:49.768Z,99779.84
2023-01-27T07:46:19.689Z,99785.28
2023-01-27T07:48:47.873Z,99789.06
2023-01-27T07:51:16.814Z,99791.16
2023-01-27T07:53:44.923Z,99795.41
2023-01-27T07:56:13.352Z,99794.03
2023-01-27T07:58:43.860Z,99796.16
2023-01-27T08:01:14.164Z,99798.56
2023-01-27T08:03:42.399Z,99801.63
2023-01-27T08:06:13.467Z,99806.22
2023-01-27T08:08:41.733Z,99801.75
2023-01-27T08:11:13.758Z,99801.63
2023-01-27T08:13:43.875Z,99799.75
2023-01-27T08:16:15.672Z,99802.84
2023-01-27T08:18:44.044Z,99796.09
2023-01-27T08:21:13.739Z,99797.78
2023-01-27T08:23:41.965Z,99801.50
2023-01-27T08:26:10.204Z,99804.13
2023-01-27T08:28:40.238Z,99811.56
2023-01-27T08:31:13.274Z,99805.88
2023-01-27T08:33:42.850Z,99809.06
2023-01-27T08:36:14.158Z,99810.72
2023-01-27T08:38:43.417Z,99818.31
2023-01-27T08:41:14.454Z,99821.88
2023-01-27T08:43:43.235Z,99825.88
2023-01-27T08:46:13.614Z,99818.16
2023-01-27T08:48:42.404Z,99826.19
2023-01-27T08:51:13.837Z,99820.69
2023-01-27T08:53:42.454Z,99831.06
2023-01-27T08:56:14.671Z,99824.44
2023-01-27T08:58:43.216Z,99835.88
2023-01-27T09:01:12.951Z,99828.34
2023-01-27T09:03:41.245Z,99828.00
2023-01-27T09:06:11.692Z,99833.22
2023-01-27T09:08:40.848Z,99839.47
2023-01-27T09:11:15.193Z,99832.50
2023-01-27T09:13:44.130Z,99838.16
2023-01-27T09:16:13.843Z,99832.50
2023-01-27T09:18:42.538Z,99840.78
2023-01-27T09:21:11.937Z,99833.94
2023-01-27T09:23:40.165Z,99841.31
2023-01-27T09:26:08.425Z,99833.00
2023-01-27T09:28:36.644Z,99834.88
2023-01-27T09:31:05.088Z,99838.81
2023-01-27T09:33:34.627Z,99832.34
2023-01-27T09:36:06.400Z,99832.47
2023-01-27T09:38:39.807Z,99836.94
2023-01-27T09:41:30.465Z,99846.66
2023-01-27T09:44:23.933Z,99845.94
2023-01-27T09:47:19.018Z,99849.66
2023-01-27T09:50:30.161Z,99847.91
2023-01-27T09:53:24.581Z,99843.41
2023-01-27T09:55:59.432Z,99842.94
2023-01-27T09:58:40.107Z,99838.41
2023-01-27T10:01:20.505Z,99832.41
2023-01-27T10:04:19.046Z,99831.91
2023-01-27T10:07:09.425Z,99831.53
2023-01-27T10:10:07.492Z,99833.31
2023-01-27T10:12:57.241Z,99830.28
2023-01-27T10:15:39.646Z,99827.66
2023-01-27T10:18:25.099Z,99832.31
2023-01-27T10:21:01.283Z,99817.91
2023-01-27T10:23:43.466Z,99822.16
2023-01-27T10:26:24.817Z,99808.97
2023-01-27T10:28:59.393Z,99809.97
2023-01-27T10:31:33.387Z,99816.72
2023-01-27T10:34:13.659Z,99818.91
2023-01-27T10:36:51.266Z,99823.47
2023-01-27T10:39:33.180Z,99814.19
2023-01-27T10:42:13.291Z,99816.41
2023-01-27T10:45:02.648Z,99815.34
2023-01-27T10:47:49.186Z,99808.19
2023-01-27T10:50:21.128Z,99796.06
2023-01-27T10:52:56.469Z,99791.41
2023-01-27T10:55:32.095Z,99798.25
2023-01-27T10:58:06.959Z,99800.56
2023-01-27T11:01:17.714Z,99796.81
2023-01-27T11:03:49.859Z,99797.50
2023-01-27T11:06:22.972Z,99795.13
2023-01-27T11:09:00.339Z,99795.59
2023-01-27T11:11:46.666Z,99794.13
2023-01-27T11:14:25.245Z,99800.97
2023-01-27T11:16:57.292Z,99801.16
2023-01-27T11:19:36.340Z,99810.81
2023-01-27T11:22:09.063Z,99795.94
2023-01-27T11:24:46.247Z,99812.00
2023-01-27T11:27:32.423Z,99807.25
2023-01-27T11:30:09.203Z,99798.66
2023-01-27T11:32:49.707Z,99798.97
2023-01-27T11:35:18.228Z,99804.75
2023-01-27T11:37:50.531Z,99798.88
2023-01-27T11:40:24.288Z,99784.50
2023-01-27T11:42:54.884Z,99789.16
2023-01-27T11:45:23.497Z,99791.09
2023-01-27T11:47:56.355Z,99783.13
2023-01-27T11:50:27.310Z,99792.91
2023-01-27T11:53:05.418Z,99777.63
2023-01-27T11:55:40.648Z,99785.59
2023-01-27T11:58:18.549Z,99788.63
2023-01-27T12:00:54.565Z,99780.13
2023-01-27T12:03:29.456Z,99786.72
2023-01-27T12:06:02.426Z,99798.00
2023-01-27T12:08:45.037Z,99789.59
2023-01-27T12:11:23.618Z,99790.56
2023-01-27T12:13:56.889Z,99782.97
2023-01-27T12:16:42.182Z,99783.09
2023-01-27T12:19:23.670Z,99777.06
2023-01-27T12:21:55.493Z,99780.47
2023-01-27T12:24:31.910Z,99777.88
2023-01-27T12:27:02.676Z,99773.19
2023-01-27T12:29:41.488Z,99788.56
2023-01-27T12:32:18.590Z,99778.41
2023-01-27T12:34:51.137Z,99779.75
2023-01-27T12:37:25.903Z,99771.13
2023-01-27T12:39:58.796Z,99775.81
2023-01-27T12:42:37.140Z,99764.69
2023-01-27T12:45:25.677Z,99765.22
2023-01-27T12:48:00.179Z,99757.38
2023-01-27T12:50:31.159Z,99759.28
2023-01-27T12:53:08.138Z,99763.97
2023-01-27T12:55:40.699Z,99759.88
2023-01-27T12:58:36.619Z,99765.53
2023-01-27T13:01:18.918Z,99765.25
2023-01-27T13:03:52.145Z,99759.75
2023-01-27T13:06:30.911Z,99758.50
2023-01-27T13:09:01.378Z,99756.97
2023-01-27T13:11:41.516Z,99758.38
2023-01-27T13:14:17.380Z,99761.41
2023-01-27T13:16:54.297Z,99756.44
2023-01-27T13:19:35.954Z,99752.34
2023-01-27T13:22:05.427Z,99749.28
2023-01-27T13:24:40.683Z,99744.91
2023-01-27T13:27:17.353Z,99739.66
2023-01-27T13:29:56.137Z,99740.59
2023-01-27T13:32:29.604Z,99735.91
2023-01-27T13:35:16.472Z,99735.78
2023-01-27T13:37:50.276Z,99738.28
2023-01-27T13:40:23.731Z,99730.94
2023-01-27T13:42:55.917Z,99728.84
2023-01-27T13:45:28.202Z,99734.28
2023-01-27T13:48:02.489Z,99740.91
2023-01-27T13:50:36.354Z,99744.53
2023-01-27T13:53:05.905Z,99732.56
2023-01-27T13:55:49.067Z,99737.13
2023-01-27T13:58:27.699Z,99749.50
2023-01-27T14:01:05.363Z,99751.84
2023-01-27T14:04:06.963Z,99751.44
2023-01-27T14:06:50.184Z,99750.91
2023-01-27T14:09:40.699Z,99756.72
2023-01-27T14:12:27.290Z,99751.75
2023-01-27T14:15:07.810Z,99760.69
2023-01-27T14:17:45.824Z,99761.66
2023-01-27T14:20:38.498Z,99757.81
2023-01-27T14:23:32.646Z,99756.72
2023-01-27T14:26:17.261Z,99764.72
2023-01-27T14:29:04.587Z,99768.28
2023-01-27T14:31:47.194Z,99770.63
2023-01-27T14:34:44.321Z,99775.84
2023-01-27T14:37:23.397Z,99781.50
2023-01-27T14:40:13.049Z,99781.75
2023-01-27T14:42:51.908Z,99784.06
2023-01-27T14:45:25.003Z,99789.16
2023-01-27T14:48:05.241Z,99786.94
2023-01-27T14:50:40.897Z,99796.56
2023-01-27T14:53:43.780Z,99799.72
2023-01-27T14:56:19.882Z,99793.34
2023-01-27T14:58:56.996Z,99802.16
2023-01-27T15:01:42.851Z,99809.16
2023-01-27T15:04:37.003Z,99811.31
2023-01-27T15:07:16.325Z,99817.78
2023-01-27T15:10:17.704Z,99821.06
2023-01-27T15:13:32.159Z,99814.53
2023-01-27T15:16:19.697Z,99820.66
2023-01-27T15:19:25.605Z,99826.53
2023-01-27T15:22:40.475Z,99824.53
2023-01-27T15:25:29.745Z,99821.50
2023-01-27T15:27:59.370Z,99826.81
2023-01-27T15:30:31.178Z,99831.09
2023-01-27T15:32:59.380Z,99827.78
2023-01-27T15:35:38.789Z,99823.94
2023-01-27T15:38:35.827Z,99827.28
2023-01-27T15:41:10.208Z,99836.19
2023-01-27T15:44:06.731Z,99836.69
2023-01-27T15:46:37.619Z,99835.09
2023-01-27T15:49:12.354Z,99837.63
2023-01-27T15:51:40.620Z,99849.53
2023-01-27T15:54:18.675Z,99846.19
2023-01-27T15:56:52.224Z,99848.38
2023-01-27T15:59:25.224Z,99851.13
2023-01-27T16:02:06.495Z,99856.81
2023-01-27T16:04:35.696Z,99856.22
